<?xml version="1.0" encoding="UTF-8"?>
<gpx creator="Garmin Connect" version="1.1"
  xsi:schemaLocation="http://www.topografix.com/GPX/1/1 http://www.topografix.com/GPX/11.xsd"
  xmlns:ns3="http://www.garmin.com/xmlschemas/TrackPointExtension/v1"
  xmlns="http://www.topografix.com/GPX/1/1"
  xmlns:xsi="http://www.w3.org/2001/XMLSchema-instance" xmlns:ns2="http://www.garmin.com/xmlschemas/GpxExtensions/v3">
  <metadata>
    <name>Tahtipolku</name>
    <link href="connect.garmin.com">
      <text>Garmin Connect</text>
    </link>
    <time>2020-10-30T13:09:44.000Z</time>
  </metadata>
  <trk>
    <name>Tahtipolku</name>
    <trkseg>
      <trkpt lat="60.99250325902353" lon="25.582054028840115">
        <ele>133.1932830810547</ele>
        <time>2020-10-30T13:09:44.000Z</time>
      </trkpt>
      <trkpt lat="60.99244426890598" lon="25.582076339051138">
        <ele>133.22581481933594</ele>
        <time>2020-10-30T13:09:44.001Z</time>
      </trkpt>
      <trkpt lat="60.99203833333539" lon="25.582385128363924">
        <ele>133.2820281982422</ele>
        <time>2020-10-30T13:09:44.011Z</time>
      </trkpt>
      <trkpt lat="60.99162711716576" lon="25.582783939316837">
        <ele>133.24609375</ele>
        <time>2020-10-30T13:09:44.030Z</time>
      </trkpt>
      <trkpt lat="60.99144112273439" lon="25.582891479134535">
        <ele>133.30850219726562</ele>
        <time>2020-10-30T13:09:44.053Z</time>
      </trkpt>
      <trkpt lat="60.99134548521921" lon="25.582843367010362">
        <ele>133.45225524902344</ele>
        <time>2020-10-30T13:09:44.078Z</time>
      </trkpt>
      <trkpt lat="60.991232832440595" lon="25.58282744139428">
        <ele>133.57757568359375</ele>
        <time>2020-10-30T13:09:44.105Z</time>
      </trkpt>
      <trkpt lat="60.99110157183693" lon="25.582752339541866">
        <ele>133.78465270996094</ele>
        <time>2020-10-30T13:09:44.135Z</time>
      </trkpt>
      <trkpt lat="60.99093988492476" lon="25.58256265707309">
        <ele>134.14466857910156</ele>
        <time>2020-10-30T13:09:44.169Z</time>
      </trkpt>
      <trkpt lat="60.99082941144095" lon="25.58229066431521">
        <ele>134.54440307617188</ele>
        <time>2020-10-30T13:09:44.206Z</time>
      </trkpt>
      <trkpt lat="60.99081859878586" lon="25.582138951867787">
        <ele>134.7185821533203</ele>
        <time>2020-10-30T13:09:44.245Z</time>
      </trkpt>
      <trkpt lat="60.99084014027699" lon="25.58194289915262">
        <ele>134.90960693359375</ele>
        <time>2020-10-30T13:09:44.285Z</time>
      </trkpt>
      <trkpt lat="60.990850952932085" lon="25.581911299377637">
        <ele>134.933349609375</ele>
        <time>2020-10-30T13:09:44.326Z</time>
      </trkpt>
      <trkpt lat="60.99084558851407" lon="25.58163939043876">
        <ele>135.2321014404297</ele>
        <time>2020-10-30T13:09:44.370Z</time>
      </trkpt>
      <trkpt lat="60.99079705729472" lon="25.581063888967034">
        <ele>135.90008544921875</ele>
        <time>2020-10-30T13:09:44.419Z</time>
      </trkpt>
      <trkpt lat="60.99077283359453" lon="25.58095006272194">
        <ele>136.04624938964844</ele>
        <time>2020-10-30T13:09:44.469Z</time>
      </trkpt>
      <trkpt lat="60.99075397431242" lon="25.580766666680542">
        <ele>136.2623748779297</ele>
        <time>2020-10-30T13:09:44.521Z</time>
      </trkpt>
      <trkpt lat="60.990732349002215" lon="25.58069081045686">
        <ele>136.3650360107422</ele>
        <time>2020-10-30T13:09:44.574Z</time>
      </trkpt>
      <trkpt lat="60.99058390549703" lon="25.580383613705603">
        <ele>136.8392333984375</ele>
        <time>2020-10-30T13:09:44.631Z</time>
      </trkpt>
      <trkpt lat="60.99054249889537" lon="25.58035134337839">
        <ele>136.913818359375</ele>
        <time>2020-10-30T13:09:44.689Z</time>
      </trkpt>
      <trkpt lat="60.99035474426432" lon="25.580131737515273">
        <ele>137.33116149902344</ele>
        <time>2020-10-30T13:09:44.752Z</time>
      </trkpt>
      <trkpt lat="60.9903092305301" lon="25.580026125535362">
        <ele>137.48887634277344</ele>
        <time>2020-10-30T13:09:44.816Z</time>
      </trkpt>
      <trkpt lat="60.99026723719523" lon="25.57997558265919">
        <ele>137.58375549316406</ele>
        <time>2020-10-30T13:09:44.881Z</time>
      </trkpt>
      <trkpt lat="60.990185429820265" lon="25.579770226031517">
        <ele>137.88401794433594</ele>
        <time>2020-10-30T13:09:44.948Z</time>
      </trkpt>
      <trkpt lat="60.99011066324397" lon="25.579472500830843">
        <ele>138.2772674560547</ele>
        <time>2020-10-30T13:09:45.019Z</time>
      </trkpt>
      <trkpt lat="60.99006934046133" lon="25.57949362322683">
        <ele>138.2941131591797</ele>
        <time>2020-10-30T13:09:45.091Z</time>
      </trkpt>
      <trkpt lat="60.98982207431778" lon="25.57971733622249">
        <ele>138.28988647460938</ele>
        <time>2020-10-30T13:09:45.168Z</time>
      </trkpt>
      <trkpt lat="60.989756360196914" lon="25.579741811379744">
        <ele>138.3265380859375</ele>
        <time>2020-10-30T13:09:45.246Z</time>
      </trkpt>
      <trkpt lat="60.98962535105036" lon="25.579825295135375">
        <ele>138.36215209960938</ele>
        <time>2020-10-30T13:09:45.327Z</time>
      </trkpt>
      <trkpt lat="60.98954874045536" lon="25.579772070050247">
        <ele>138.49314880371094</ele>
        <time>2020-10-30T13:09:45.410Z</time>
      </trkpt>
      <trkpt lat="60.98948051176354" lon="25.579751031473265">
        <ele>138.58135986328125</ele>
        <time>2020-10-30T13:09:45.494Z</time>
      </trkpt>
      <trkpt lat="60.98942661612613" lon="25.57969202287491">
        <ele>138.69680786132812</ele>
        <time>2020-10-30T13:09:45.579Z</time>
      </trkpt>
      <trkpt lat="60.989160658338484" lon="25.579228252172438">
        <ele>139.45285034179688</ele>
        <time>2020-10-30T13:09:45.671Z</time>
      </trkpt>
      <trkpt lat="60.989092851889815" lon="25.579145522627616">
        <ele>139.6072540283203</ele>
        <time>2020-10-30T13:09:45.765Z</time>
      </trkpt>
      <trkpt lat="60.98908430947829" lon="25.579145958307933">
        <ele>139.614990234375</ele>
        <time>2020-10-30T13:09:45.859Z</time>
      </trkpt>
      <trkpt lat="60.98895479879662" lon="25.579152563586796">
        <ele>139.73216247558594</ele>
        <time>2020-10-30T13:09:45.956Z</time>
      </trkpt>
      <trkpt lat="60.98894574634117" lon="25.579123059287674">
        <ele>139.77272033691406</ele>
        <time>2020-10-30T13:09:46.053Z</time>
      </trkpt>
      <trkpt lat="60.98894398614153" lon="25.579034462571137">
        <ele>139.8700714111328</ele>
        <time>2020-10-30T13:09:46.151Z</time>
      </trkpt>
      <trkpt lat="60.988929233991946" lon="25.578979393467293">
        <ele>139.94369506835938</ele>
        <time>2020-10-30T13:09:46.249Z</time>
      </trkpt>
      <trkpt lat="60.9887661221562" lon="25.578971263021227">
        <ele>140.10902404785156</ele>
        <time>2020-10-30T13:09:46.351Z</time>
      </trkpt>
      <trkpt lat="60.98865648686274" lon="25.578992301598188">
        <ele>140.19154357910156</ele>
        <time>2020-10-30T13:09:46.455Z</time>
      </trkpt>
      <trkpt lat="60.98828944332285" lon="25.579133704304677">
        <ele>140.3911590576172</ele>
        <time>2020-10-30T13:09:46.566Z</time>
      </trkpt>
      <trkpt lat="60.98817670672518" lon="25.579332690685973">
        <ele>140.28451538085938</ele>
        <time>2020-10-30T13:09:46.680Z</time>
      </trkpt>
      <trkpt lat="60.98808995402734" lon="25.579649694263885">
        <ele>140.02549743652344</ele>
        <time>2020-10-30T13:09:46.798Z</time>
      </trkpt>
      <trkpt lat="60.98790496542434" lon="25.57997298426921">
        <ele>139.85397338867188</ele>
        <time>2020-10-30T13:09:46.921Z</time>
      </trkpt>
      <trkpt lat="60.987897589349586" lon="25.5799604952335">
        <ele>139.87452697753906</ele>
        <time>2020-10-30T13:09:47.044Z</time>
      </trkpt>
      <trkpt lat="60.98789758934956" lon="25.579972229897937">
        <ele>139.8618621826172</ele>
        <time>2020-10-30T13:09:47.167Z</time>
      </trkpt>
      <trkpt lat="60.98785802676658" lon="25.579991759732337">
        <ele>139.87875366210938</ele>
        <time>2020-10-30T13:09:47.291Z</time>
      </trkpt>
      <trkpt lat="60.987770016783315" lon="25.580003494396767">
        <ele>139.9505615234375</ele>
        <time>2020-10-30T13:09:47.417Z</time>
      </trkpt>
      <trkpt lat="60.98743054970482" lon="25.580020090565064">
        <ele>140.2584686279297</ele>
        <time>2020-10-30T13:09:47.550Z</time>
      </trkpt>
      <trkpt lat="60.987182193913874" lon="25.580140119418456">
        <ele>140.36724853515625</ele>
        <time>2020-10-30T13:09:47.688Z</time>
      </trkpt>
      <trkpt lat="60.987125616067466" lon="25.58020248077807">
        <ele>140.35421752929688</ele>
        <time>2020-10-30T13:09:47.827Z</time>
      </trkpt>
      <trkpt lat="60.98706652365011" lon="25.580365844070922">
        <ele>140.2345428466797</ele>
        <time>2020-10-30T13:09:47.968Z</time>
      </trkpt>
      <trkpt lat="60.987048167282154" lon="25.580465840175698">
        <ele>140.14418029785156</ele>
        <time>2020-10-30T13:09:48.110Z</time>
      </trkpt>
      <trkpt lat="60.986998546415386" lon="25.580576397478566">
        <ele>140.0724334716797</ele>
        <time>2020-10-30T13:09:48.253Z</time>
      </trkpt>
      <trkpt lat="60.98693191028516" lon="25.580981327220805">
        <ele>139.69915771484375</ele>
        <time>2020-10-30T13:09:48.401Z</time>
      </trkpt>
      <trkpt lat="60.98694330967347" lon="25.5811845883727">
        <ele>139.46875</ele>
        <time>2020-10-30T13:09:48.551Z</time>
      </trkpt>
      <trkpt lat="60.98697096995395" lon="25.581321297213396">
        <ele>139.29458618164062</ele>
        <time>2020-10-30T13:09:48.702Z</time>
      </trkpt>
      <trkpt lat="60.98695177539569" lon="25.581536712124933">
        <ele>139.0803985595703</ele>
        <time>2020-10-30T13:09:48.855Z</time>
      </trkpt>
      <trkpt lat="60.98692285782973" lon="25.581643832847483">
        <ele>138.99249267578125</ele>
        <time>2020-10-30T13:09:49.009Z</time>
      </trkpt>
      <trkpt lat="60.986841134273796" lon="25.582035854458788">
        <ele>138.64764404296875</ele>
        <time>2020-10-30T13:09:49.168Z</time>
      </trkpt>
      <trkpt lat="60.98683233327548" lon="25.58217080309988">
        <ele>138.5103759765625</ele>
        <time>2020-10-30T13:09:49.328Z</time>
      </trkpt>
      <trkpt lat="60.98677500105777" lon="25.58249861933288">
        <ele>138.02284240722656</ele>
        <time>2020-10-30T13:09:49.491Z</time>
      </trkpt>
      <trkpt lat="60.98664474628249" lon="25.582633484154886">
        <ele>137.56466674804688</ele>
        <time>2020-10-30T13:09:49.657Z</time>
      </trkpt>
      <trkpt lat="60.986417931982686" lon="25.582935316488133">
        <ele>136.69448852539062</ele>
        <time>2020-10-30T13:09:49.829Z</time>
      </trkpt>
      <trkpt lat="60.986272422143635" lon="25.58307118713856">
        <ele>136.1986083984375</ele>
        <time>2020-10-30T13:09:50.004Z</time>
      </trkpt>
      <trkpt lat="60.98624425894897" lon="25.58313488960265">
        <ele>136.062255859375</ele>
        <time>2020-10-30T13:09:50.180Z</time>
      </trkpt>
      <trkpt lat="60.986062036374015" lon="25.583379305899143">
        <ele>135.36106872558594</ele>
        <time>2020-10-30T13:09:50.360Z</time>
      </trkpt>
      <trkpt lat="60.985848214024095" lon="25.583956819027602">
        <ele>134.7559051513672</ele>
        <time>2020-10-30T13:09:50.547Z</time>
      </trkpt>
      <trkpt lat="60.98573505833129" lon="25.58461454696952">
        <ele>134.61427307128906</ele>
        <time>2020-10-30T13:09:50.741Z</time>
      </trkpt>
      <trkpt lat="60.9855643189637" lon="25.585221564397177">
        <ele>134.0452880859375</ele>
        <time>2020-10-30T13:09:50.942Z</time>
      </trkpt>
      <trkpt lat="60.98556472608288" lon="25.585219516548886">
        <ele>134.0469970703125</ele>
        <time>2020-10-30T13:09:51.143Z</time>
      </trkpt>
      <trkpt lat="60.98556230214805" lon="25.58523170916882">
        <ele>134.03677368164062</ele>
        <time>2020-10-30T13:09:51.344Z</time>
      </trkpt>
      <trkpt lat="60.985413444706595" lon="25.58598046191037">
        <ele>133.40902709960938</ele>
        <time>2020-10-30T13:09:51.553Z</time>
      </trkpt>
      <trkpt lat="60.98528486631194" lon="25.586491003632556">
        <ele>132.948486328125</ele>
        <time>2020-10-30T13:09:51.767Z</time>
      </trkpt>
      <trkpt lat="60.98524480081476" lon="25.586545150726984">
        <ele>132.86793518066406</ele>
        <time>2020-10-30T13:09:51.982Z</time>
      </trkpt>
      <trkpt lat="60.984989068949" lon="25.587292145937653">
        <ele>132.11300659179688</ele>
        <time>2020-10-30T13:09:52.206Z</time>
      </trkpt>
      <trkpt lat="60.98463535263517" lon="25.587462885305285">
        <ele>131.58619689941406</ele>
        <time>2020-10-30T13:09:52.438Z</time>
      </trkpt>
      <trkpt lat="60.98455136596537" lon="25.58767670765515">
        <ele>131.35716247558594</ele>
        <time>2020-10-30T13:09:52.672Z</time>
      </trkpt>
      <trkpt lat="60.98449420138576" lon="25.587868485599735">
        <ele>131.1735382080078</ele>
        <time>2020-10-30T13:09:52.908Z</time>
      </trkpt>
      <trkpt lat="60.98448607093968" lon="25.58800578117369">
        <ele>131.0814208984375</ele>
        <time>2020-10-30T13:09:53.146Z</time>
      </trkpt>
      <trkpt lat="60.984383476444854" lon="25.588054899126234">
        <ele>130.92886352539062</ele>
        <time>2020-10-30T13:09:53.386Z</time>
      </trkpt>
      <trkpt lat="60.98411181896308" lon="25.588294202461825">
        <ele>130.45938110351562</ele>
        <time>2020-10-30T13:09:53.632Z</time>
      </trkpt>
      <trkpt lat="60.98377620756006" lon="25.58869502507146">
        <ele>129.81626892089844</ele>
        <time>2020-10-30T13:09:53.886Z</time>
      </trkpt>
      <trkpt lat="60.983651065745725" lon="25.588794350624088">
        <ele>129.60653686523438</ele>
        <time>2020-10-30T13:09:54.142Z</time>
      </trkpt>
      <trkpt lat="60.98345031916477" lon="25.588991576805665">
        <ele>129.24737548828125</ele>
        <time>2020-10-30T13:09:54.403Z</time>
      </trkpt>
      <trkpt lat="60.98321428477144" lon="25.58932643383739">
        <ele>128.81686401367188</ele>
        <time>2020-10-30T13:09:54.669Z</time>
      </trkpt>
      <trkpt lat="60.98289770028865" lon="25.589696159586286">
        <ele>128.5446014404297</ele>
        <time>2020-10-30T13:09:54.943Z</time>
      </trkpt>
      <trkpt lat="60.982777336159124" lon="25.589816439896783">
        <ele>128.4435272216797</ele>
        <time>2020-10-30T13:09:55.219Z</time>
      </trkpt>
      <trkpt lat="60.98255068949735" lon="25.590193541720474">
        <ele>128.23512268066406</ele>
        <time>2020-10-30T13:09:55.501Z</time>
      </trkpt>
      <trkpt lat="60.98214391573644" lon="25.591198867186904">
        <ele>127.8216781616211</ele>
        <time>2020-10-30T13:09:55.796Z</time>
      </trkpt>
      <trkpt lat="60.98193721800423" lon="25.592566039413157">
        <ele>127.50885772705078</ele>
        <time>2020-10-30T13:09:56.105Z</time>
      </trkpt>
      <trkpt lat="60.98192950665331" lon="25.592766534537027">
        <ele>127.479248046875</ele>
        <time>2020-10-30T13:09:56.416Z</time>
      </trkpt>
      <trkpt lat="60.981908216619246" lon="25.592946493998152">
        <ele>127.4148178100586</ele>
        <time>2020-10-30T13:09:56.729Z</time>
      </trkpt>
      <trkpt lat="60.98190914974909" lon="25.592942422932826">
        <ele>127.41695404052734</ele>
        <time>2020-10-30T13:09:57.042Z</time>
      </trkpt>
      <trkpt lat="60.981908291327485" lon="25.59294616806049">
        <ele>127.41499328613281</ele>
        <time>2020-10-30T13:09:57.355Z</time>
      </trkpt>
      <trkpt lat="60.98159389525032" lon="25.59431777335704">
        <ele>126.69499206542969</ele>
        <time>2020-10-30T13:09:57.683Z</time>
      </trkpt>
      <trkpt lat="60.98149012728906" lon="25.594943398609743">
        <ele>126.39511108398438</ele>
        <time>2020-10-30T13:09:58.017Z</time>
      </trkpt>
      <trkpt lat="60.98149649753547" lon="25.59520784765481">
        <ele>126.30451202392578</ele>
        <time>2020-10-30T13:09:58.354Z</time>
      </trkpt>
      <trkpt lat="60.98151217169439" lon="25.595297785475836">
        <ele>126.2834243774414</ele>
        <time>2020-10-30T13:09:58.692Z</time>
      </trkpt>
      <trkpt lat="60.98155517085765" lon="25.595408426597675">
        <ele>126.2745590209961</ele>
        <time>2020-10-30T13:09:59.031Z</time>
      </trkpt>
      <trkpt lat="60.98152633711073" lon="25.59548218734562">
        <ele>126.22725677490234</ele>
        <time>2020-10-30T13:09:59.371Z</time>
      </trkpt>
      <trkpt lat="60.98149322859321" lon="25.59564270079132">
        <ele>126.14564514160156</ele>
        <time>2020-10-30T13:09:59.713Z</time>
      </trkpt>
      <trkpt lat="60.981495407888055" lon="25.59586557559665">
        <ele>126.07115173339844</ele>
        <time>2020-10-30T13:10:00.057Z</time>
      </trkpt>
      <trkpt lat="60.981517536112406" lon="25.596221806481463">
        <ele>125.99894714355469</ele>
        <time>2020-10-30T13:10:00.404Z</time>
      </trkpt>
      <trkpt lat="60.981461125904076" lon="25.59650218114254">
        <ele>125.89783477783203</ele>
        <time>2020-10-30T13:10:00.754Z</time>
      </trkpt>
      <trkpt lat="60.98151200405633" lon="25.596755063161222">
        <ele>125.86767578125</ele>
        <time>2020-10-30T13:10:01.107Z</time>
      </trkpt>
      <trkpt lat="60.9815597809044" lon="25.596887832507484">
        <ele>125.8644790649414</ele>
        <time>2020-10-30T13:10:01.461Z</time>
      </trkpt>
      <trkpt lat="60.981701854163184" lon="25.597135936841358">
        <ele>125.89017486572266</ele>
        <time>2020-10-30T13:10:01.819Z</time>
      </trkpt>
      <trkpt lat="60.98177201069273" lon="25.597304161637975">
        <ele>125.89189910888672</ele>
        <time>2020-10-30T13:10:02.179Z</time>
      </trkpt>
      <trkpt lat="60.9818395688323" lon="25.597532233223284">
        <ele>125.87770080566406</ele>
        <time>2020-10-30T13:10:02.542Z</time>
      </trkpt>
      <trkpt lat="60.98187577865399" lon="25.59779668226837">
        <ele>125.83596801757812</ele>
        <time>2020-10-30T13:10:02.908Z</time>
      </trkpt>
      <trkpt lat="60.98180570594347" lon="25.597973708063332">
        <ele>125.75144958496094</ele>
        <time>2020-10-30T13:10:03.276Z</time>
      </trkpt>
      <trkpt lat="60.98176522135114" lon="25.597980078309746">
        <ele>125.72563934326172</ele>
        <time>2020-10-30T13:10:03.645Z</time>
      </trkpt>
      <trkpt lat="60.98172482057786" lon="25.59804327785966">
        <ele>125.68623352050781</ele>
        <time>2020-10-30T13:10:04.015Z</time>
      </trkpt>
      <trkpt lat="60.98171945615982" lon="25.598138161003543">
        <ele>125.66024780273438</ele>
        <time>2020-10-30T13:10:04.386Z</time>
      </trkpt>
      <trkpt lat="60.98174636206901" lon="25.598429013043585">
        <ele>125.60659790039062</ele>
        <time>2020-10-30T13:10:04.760Z</time>
      </trkpt>
      <trkpt lat="60.98178952887034" lon="25.598606122657642">
        <ele>125.58999633789062</ele>
        <time>2020-10-30T13:10:05.135Z</time>
      </trkpt>
      <trkpt lat="60.98189824215448" lon="25.599350100383127">
        <ele>125.47669982910156</ele>
        <time>2020-10-30T13:10:05.518Z</time>
      </trkpt>
      <trkpt lat="60.981948533573494" lon="25.59949770569801">
        <ele>125.47145080566406</ele>
        <time>2020-10-30T13:10:05.903Z</time>
      </trkpt>
      <trkpt lat="60.98195750220988" lon="25.599560905247902">
        <ele>125.461669921875</ele>
        <time>2020-10-30T13:10:06.288Z</time>
      </trkpt>
      <trkpt lat="60.98195373035347" lon="25.59967850334941">
        <ele>125.43118286132812</ele>
        <time>2020-10-30T13:10:06.675Z</time>
      </trkpt>
      <trkpt lat="60.98198440811909" lon="25.59980917721987">
        <ele>125.4182357788086</ele>
        <time>2020-10-30T13:10:07.063Z</time>
      </trkpt>
      <trkpt lat="60.98193604453778" lon="25.600092653185115">
        <ele>125.32119750976562</ele>
        <time>2020-10-30T13:10:07.454Z</time>
      </trkpt>
      <trkpt lat="60.981917269074664" lon="25.600151158869235">
        <ele>125.2958984375</ele>
        <time>2020-10-30T13:10:07.846Z</time>
      </trkpt>
      <trkpt lat="60.98169607064999" lon="25.60053161345419">
        <ele>125.07191467285156</ele>
        <time>2020-10-30T13:10:08.243Z</time>
      </trkpt>
      <trkpt lat="60.98161334126567" lon="25.601078281179074">
        <ele>124.89111328125</ele>
        <time>2020-10-30T13:10:08.646Z</time>
      </trkpt>
      <trkpt lat="60.981599343487375" lon="25.601131506264203">
        <ele>124.86994171142578</ele>
        <time>2020-10-30T13:10:09.050Z</time>
      </trkpt>
      <trkpt lat="60.98160386971507" lon="25.60114927589891">
        <ele>124.86839294433594</ele>
        <time>2020-10-30T13:10:09.454Z</time>
      </trkpt>
      <trkpt lat="60.98160663574313" lon="25.601128656417103">
        <ele>124.875</ele>
        <time>2020-10-30T13:10:09.858Z</time>
      </trkpt>
      <trkpt lat="60.98163052416716" lon="25.601273998618087">
        <ele>124.75167083740234</ele>
        <time>2020-10-30T13:10:10.263Z</time>
      </trkpt>
      <trkpt lat="60.981632200547814" lon="25.601311381906267">
        <ele>124.70782470703125</ele>
        <time>2020-10-30T13:10:10.669Z</time>
      </trkpt>
      <trkpt lat="60.98165114364896" lon="25.601376509293885">
        <ele>124.64105224609375</ele>
        <time>2020-10-30T13:10:11.076Z</time>
      </trkpt>
      <trkpt lat="60.98168886221324" lon="25.601592175662496">
        <ele>124.40493774414062</ele>
        <time>2020-10-30T13:10:11.485Z</time>
      </trkpt>
      <trkpt lat="60.981739321270354" lon="25.60196760110555">
        <ele>123.98478698730469</ele>
        <time>2020-10-30T13:10:11.898Z</time>
      </trkpt>
      <trkpt lat="60.98174720025935" lon="25.60208830051124">
        <ele>123.8447036743164</ele>
        <time>2020-10-30T13:10:12.312Z</time>
      </trkpt>
      <trkpt lat="60.98173546559489" lon="25.602280581369957">
        <ele>123.60697937011719</ele>
        <time>2020-10-30T13:10:12.728Z</time>
      </trkpt>
      <trkpt lat="60.981746026792884" lon="25.60276438482104">
        <ele>123.03286743164062</ele>
        <time>2020-10-30T13:10:13.148Z</time>
      </trkpt>
      <trkpt lat="60.981745851729706" lon="25.602763661807675">
        <ele>123.03363037109375</ele>
        <time>2020-10-30T13:10:13.568Z</time>
      </trkpt>
      <trkpt lat="60.9817463978817" lon="25.602765917422957">
        <ele>123.03125762939453</ele>
        <time>2020-10-30T13:10:13.988Z</time>
      </trkpt>
      <trkpt lat="60.981810483628266" lon="25.60303059406576">
        <ele>122.75215148925781</ele>
        <time>2020-10-30T13:10:14.411Z</time>
      </trkpt>
      <trkpt lat="60.981891871908054" lon="25.60321784578263">
        <ele>122.57632446289062</ele>
        <time>2020-10-30T13:10:14.837Z</time>
      </trkpt>
      <trkpt lat="60.981883573823936" lon="25.60347391292453">
        <ele>122.26412963867188</ele>
        <time>2020-10-30T13:10:15.265Z</time>
      </trkpt>
      <trkpt lat="60.981902516925096" lon="25.60359461233019">
        <ele>122.13068389892578</ele>
        <time>2020-10-30T13:10:15.694Z</time>
      </trkpt>
      <trkpt lat="60.98204961932574" lon="25.603712713345846">
        <ele>122.07723999023438</ele>
        <time>2020-10-30T13:10:16.127Z</time>
      </trkpt>
      <trkpt lat="60.9821403953371" lon="25.603675330057722">
        <ele>122.17654418945312</ele>
        <time>2020-10-30T13:10:16.561Z</time>
      </trkpt>
      <trkpt lat="60.98249863787866" lon="25.603310549631665">
        <ele>122.8291015625</ele>
        <time>2020-10-30T13:10:17.004Z</time>
      </trkpt>
      <trkpt lat="60.98251213274277" lon="25.60348765924573">
        <ele>122.62471008300781</ele>
        <time>2020-10-30T13:10:17.448Z</time>
      </trkpt>
      <trkpt lat="60.9825174971608" lon="25.60370265506203">
        <ele>122.36998748779297</ele>
        <time>2020-10-30T13:10:17.894Z</time>
      </trkpt>
      <trkpt lat="60.98254180468" lon="25.604025190696102">
        <ele>121.99760437011719</ele>
        <time>2020-10-30T13:10:18.344Z</time>
      </trkpt>
      <trkpt lat="60.98256871058917" lon="25.604549981653662">
        <ele>121.3841323852539</ele>
        <time>2020-10-30T13:10:18.799Z</time>
      </trkpt>
      <trkpt lat="60.982569632598526" lon="25.604770677164144">
        <ele>121.11990356445312</ele>
        <time>2020-10-30T13:10:19.256Z</time>
      </trkpt>
      <trkpt lat="60.98251649133242" lon="25.604888526722807">
        <ele>120.9466323852539</ele>
        <time>2020-10-30T13:10:19.714Z</time>
      </trkpt>
      <trkpt lat="60.98224081053711" lon="25.60532002709804">
        <ele>120.50865173339844</ele>
        <time>2020-10-30T13:10:20.179Z</time>
      </trkpt>
      <trkpt lat="60.98220652855312" lon="25.605870215222197">
        <ele>120.17860412597656</ele>
        <time>2020-10-30T13:10:20.650Z</time>
      </trkpt>
      <trkpt lat="60.98222262180721" lon="25.605942718684645">
        <ele>120.1351089477539</ele>
        <time>2020-10-30T13:10:21.122Z</time>
      </trkpt>
      <trkpt lat="60.98232789851105" lon="25.606175232678627">
        <ele>119.99563598632812</ele>
        <time>2020-10-30T13:10:21.597Z</time>
      </trkpt>
      <trkpt lat="60.98232253409301" lon="25.606242706999183">
        <ele>119.95515441894531</ele>
        <time>2020-10-30T13:10:22.072Z</time>
      </trkpt>
      <trkpt lat="60.98217702425397" lon="25.606280593201504">
        <ele>119.93242645263672</ele>
        <time>2020-10-30T13:10:22.550Z</time>
      </trkpt>
      <trkpt lat="60.982146430307395" lon="25.60630590654907">
        <ele>119.91724395751953</ele>
        <time>2020-10-30T13:10:23.029Z</time>
      </trkpt>
      <trkpt lat="60.98217752716817" lon="25.60667144134635">
        <ele>119.69796752929688</ele>
        <time>2020-10-30T13:10:23.512Z</time>
      </trkpt>
      <trkpt lat="60.98222454964494" lon="25.60698601417245">
        <ele>119.50926208496094</ele>
        <time>2020-10-30T13:10:23.998Z</time>
      </trkpt>
      <trkpt lat="60.98228707864261" lon="25.607626726850867">
        <ele>119.12491607666016</ele>
        <time>2020-10-30T13:10:24.490Z</time>
      </trkpt>
      <trkpt lat="60.982251874649286" lon="25.608429126441468">
        <ele>118.6435775756836</ele>
        <time>2020-10-30T13:10:24.990Z</time>
      </trkpt>
      <trkpt lat="60.982230752253315" lon="25.608640685677525">
        <ele>118.51667022705078</ele>
        <time>2020-10-30T13:10:25.492Z</time>
      </trkpt>
      <trkpt lat="60.982286408090346" lon="25.608902201056463">
        <ele>118.35979461669922</ele>
        <time>2020-10-30T13:10:25.997Z</time>
      </trkpt>
      <trkpt lat="60.982379782491705" lon="25.609446940943613">
        <ele>118.03302001953125</ele>
        <time>2020-10-30T13:10:26.507Z</time>
      </trkpt>
      <trkpt lat="60.98216746888436" lon="25.610026465728847">
        <ele>117.18196868896484</ele>
        <time>2020-10-30T13:10:27.025Z</time>
      </trkpt>
      <trkpt lat="60.982016007894025" lon="25.610542707145203">
        <ele>116.37680053710938</ele>
        <time>2020-10-30T13:10:27.548Z</time>
      </trkpt>
      <trkpt lat="60.981978540786855" lon="25.61077061109239">
        <ele>116.02134704589844</ele>
        <time>2020-10-30T13:10:28.074Z</time>
      </trkpt>
      <trkpt lat="60.98197890940621" lon="25.610769609857925">
        <ele>116.02291107177734</ele>
        <time>2020-10-30T13:10:28.600Z</time>
      </trkpt>
      <trkpt lat="60.98183738953745" lon="25.61115399934352">
        <ele>115.42338562011719</ele>
        <time>2020-10-30T13:10:29.130Z</time>
      </trkpt>
      <trkpt lat="60.98164686887836" lon="25.61162883415818">
        <ele>114.68280029296875</ele>
        <time>2020-10-30T13:10:29.666Z</time>
      </trkpt>
      <trkpt lat="60.981327602186546" lon="25.61233433894808">
        <ele>113.58345031738281</ele>
        <time>2020-10-30T13:10:30.212Z</time>
      </trkpt>
      <trkpt lat="60.98130891054247" lon="25.612454786896656">
        <ele>113.52913665771484</ele>
        <time>2020-10-30T13:10:30.759Z</time>
      </trkpt>
      <trkpt lat="60.98122224166368" lon="25.613550972193448">
        <ele>112.95475769042969</ele>
        <time>2020-10-30T13:10:31.317Z</time>
      </trkpt>
      <trkpt lat="60.981244872802236" lon="25.61380888335406">
        <ele>112.7783203125</ele>
        <time>2020-10-30T13:10:31.877Z</time>
      </trkpt>
      <trkpt lat="60.981341432326786" lon="25.61409076675768">
        <ele>112.51654052734375</ele>
        <time>2020-10-30T13:10:32.441Z</time>
      </trkpt>
      <trkpt lat="60.981660615199566" lon="25.614866763353298">
        <ele>111.74467468261719</ele>
        <time>2020-10-30T13:10:33.015Z</time>
      </trkpt>
      <trkpt lat="60.981693975174174" lon="25.61496525071559">
        <ele>111.65357208251953</ele>
        <time>2020-10-30T13:10:33.590Z</time>
      </trkpt>
      <trkpt lat="60.98169481336451" lon="25.61500104144211">
        <ele>111.63130187988281</ele>
        <time>2020-10-30T13:10:34.165Z</time>
      </trkpt>
      <trkpt lat="60.98191316194212" lon="25.61551795341071">
        <ele>111.11164093017578</ele>
        <time>2020-10-30T13:10:34.747Z</time>
      </trkpt>
      <trkpt lat="60.98218322686232" lon="25.61612857505679">
        <ele>110.48612213134766</ele>
        <time>2020-10-30T13:10:35.337Z</time>
      </trkpt>
      <trkpt lat="60.982302249887354" lon="25.61635237187145">
        <ele>110.23763275146484</ele>
        <time>2020-10-30T13:10:35.930Z</time>
      </trkpt>
      <trkpt lat="60.9824910941658" lon="25.616762749850707">
        <ele>109.81019592285156</ele>
        <time>2020-10-30T13:10:36.529Z</time>
      </trkpt>
      <trkpt lat="60.982495620393514" lon="25.616805497556932">
        <ele>109.78020477294922</ele>
        <time>2020-10-30T13:10:37.128Z</time>
      </trkpt>
      <trkpt lat="60.9827040783254" lon="25.617388710379615">
        <ele>109.23026275634766</ele>
        <time>2020-10-30T13:10:37.734Z</time>
      </trkpt>
      <trkpt lat="60.98290658510602" lon="25.617919536307436">
        <ele>108.71746063232422</ele>
        <time>2020-10-30T13:10:38.347Z</time>
      </trkpt>
      <trkpt lat="60.98323783707496" lon="25.61974542621236">
        <ele>107.30420684814453</ele>
        <time>2020-10-30T13:10:38.979Z</time>
      </trkpt>
    </trkseg>
  </trk>
</gpx>
